sensor_id;sensor_type;location;lat;lon;timestamp;temperature;humidity
34768;DHT22;21755;43.608;1.236;2023-02-23T00:00:29;10.30;99.90
34768;DHT22;21755;43.608;1.236;2023-02-23T00:02:59;10.30;99.90
34768;DHT22;21755;43.608;1.236;2023-02-23T00:05:30;10.30;99.90
34768;DHT22;21755;43.608;1.236;2023-02-23T00:07:56;10.20;99.90
34768;DHT22;21755;43.608;1.236;2023-02-23T00:10:23;10.20;99.90
34768;DHT22;21755;43.608;1.236;2023-02-23T00:12:57;10.20;99.90
34768;DHT22;21755;43.608;1.236;2023-02-23T00:15:25;10.30;99.90
34768;DHT22;21755;43.608;1.236;2023-02-23T00:17:55;10.20;99.90
34768;DHT22;21755;43.608;1.236;2023-02-23T00:20:23;10.20;99.90
34768;DHT22;21755;43.608;1.236;2023-02-23T00:22:54;10.20;99.90
34768;DHT22;21755;43.608;1.236;2023-02-23T00:25:20;10.20;99.90
34768;DHT22;21755;43.608;1.236;2023-02-23T00:27:47;10.20;99.90
34768;DHT22;21755;43.608;1.236;2023-02-23T00:30:16;10.20;99.90
34768;DHT22;21755;43.608;1.236;2023-02-23T00:32:43;10.20;99.90
34768;DHT22;21755;43.608;1.236;2023-02-23T00:35:09;10.20;99.90
34768;DHT22;21755;43.608;1.236;2023-02-23T00:37:46;10.20;99.90
34768;DHT22;21755;43.608;1.236;2023-02-23T00:40:16;10.20;99.90
34768;DHT22;21755;43.608;1.236;2023-02-23T00:42:43;10.20;99.90
34768;DHT22;21755;43.608;1.236;2023-02-23T00:45:11;10.20;99.90
34768;DHT22;21755;43.608;1.236;2023-02-23T00:47:41;10.20;99.90
34768;DHT22;21755;43.608;1.236;2023-02-23T00:50:13;10.20;99.90
34768;DHT22;21755;43.608;1.236;2023-02-23T00:52:42;10.20;99.90
34768;DHT22;21755;43.608;1.236;2023-02-23T00:55:11;10.20;99.90
34768;DHT22;21755;43.608;1.236;2023-02-23T00:57:37;10.20;99.90
34768;DHT22;21755;43.608;1.236;2023-02-23T01:00:09;10.20;99.90
34768;DHT22;21755;43.608;1.236;2023-02-23T01:02:46;10.20;99.90
34768;DHT22;21755;43.608;1.236;2023-02-23T01:05:13;10.20;99.90
34768;DHT22;21755;43.608;1.236;2023-02-23T01:07:39;10.20;99.90
34768;DHT22;21755;43.608;1.236;2023-02-23T01:10:06;10.20;99.90
34768;DHT22;21755;43.608;1.236;2023-02-23T01:12:49;10.20;99.90
34768;DHT22;21755;43.608;1.236;2023-02-23T01:15:17;10.20;99.90
34768;DHT22;21755;43.608;1.236;2023-02-23T01:17:43;10.10;99.90
34768;DHT22;21755;43.608;1.236;2023-02-23T01:20:11;10.10;99.90
34768;DHT22;21755;43.608;1.236;2023-02-23T01:22:48;10.10;99.90
34768;DHT22;21755;43.608;1.236;2023-02-23T01:25:16;10.10;99.90
34768;DHT22;21755;43.608;1.236;2023-02-23T01:27:44;10.10;99.90
34768;DHT22;21755;43.608;1.236;2023-02-23T01:30:12;10.10;99.90
34768;DHT22;21755;43.608;1.236;2023-02-23T01:32:39;10.10;99.90
34768;DHT22;21755;43.608;1.236;2023-02-23T01:35:10;10.10;99.90
34768;DHT22;21755;43.608;1.236;2023-02-23T01:37:39;10.10;99.90
34768;DHT22;21755;43.608;1.236;2023-02-23T01:40:14;10.10;99.90
34768;DHT22;21755;43.608;1.236;2023-02-23T01:42:44;10.10;99.90
34768;DHT22;21755;43.608;1.236;2023-02-23T01:45:26;10.10;99.90
34768;DHT22;21755;43.608;1.236;2023-02-23T01:47:56;10.00;99.90
34768;DHT22;21755;43.608;1.236;2023-02-23T01:50:25;10.00;99.90
34768;DHT22;21755;43.608;1.236;2023-02-23T01:52:52;10.00;99.90
34768;DHT22;21755;43.608;1.236;2023-02-23T01:55:20;10.00;99.90
34768;DHT22;21755;43.608;1.236;2023-02-23T01:57:53;10.00;99.90
34768;DHT22;21755;43.608;1.236;2023-02-23T02:00:20;10.00;99.90
34768;DHT22;21755;43.608;1.236;2023-02-23T02:02:51;9.90;99.90
34768;DHT22;21755;43.608;1.236;2023-02-23T02:05:18;9.90;99.90
34768;DHT22;21755;43.608;1.236;2023-02-23T02:07:49;9.80;99.90
34768;DHT22;21755;43.608;1.236;2023-02-23T02:10:24;9.80;99.90
34768;DHT22;21755;43.608;1.236;2023-02-23T02:13:19;9.70;99.90
34768;DHT22;21755;43.608;1.236;2023-02-23T02:18:55;9.70;99.90
34768;DHT22;21755;43.608;1.236;2023-02-23T02:41:24;9.40;99.90
34768;DHT22;21755;43.608;1.236;2023-02-23T02:44:23;9.30;99.90
34768;DHT22;21755;43.608;1.236;2023-02-23T02:46:47;9.20;99.90
34768;DHT22;21755;43.608;1.236;2023-02-23T02:49:31;9.30;99.90
34768;DHT22;21755;43.608;1.236;2023-02-23T02:52:18;9.20;99.90
34768;DHT22;21755;43.608;1.236;2023-02-23T02:54:51;9.20;99.90
34768;DHT22;21755;43.608;1.236;2023-02-23T02:57:20;9.20;99.90
34768;DHT22;21755;43.608;1.236;2023-02-23T02:59:49;9.20;99.90
34768;DHT22;21755;43.608;1.236;2023-02-23T03:02:39;9.20;99.90
34768;DHT22;21755;43.608;1.236;2023-02-23T03:05:35;9.20;99.90
34768;DHT22;21755;43.608;1.236;2023-02-23T03:08:52;9.20;99.90
34768;DHT22;21755;43.608;1.236;2023-02-23T03:11:50;9.00;99.90
34768;DHT22;21755;43.608;1.236;2023-02-23T03:14:58;9.00;99.90
34768;DHT22;21755;43.608;1.236;2023-02-23T03:17:47;9.00;99.90
34768;DHT22;21755;43.608;1.236;2023-02-23T03:20:44;9.00;99.90
34768;DHT22;21755;43.608;1.236;2023-02-23T03:32:06;9.00;99.90
34768;DHT22;21755;43.608;1.236;2023-02-23T03:35:00;9.00;99.90
34768;DHT22;21755;43.608;1.236;2023-02-23T03:38:05;9.00;99.90
34768;DHT22;21755;43.608;1.236;2023-02-23T03:40:54;9.00;99.90
34768;DHT22;21755;43.608;1.236;2023-02-23T03:43:49;8.90;99.90
34768;DHT22;21755;43.608;1.236;2023-02-23T03:46:37;8.90;99.90
34768;DHT22;21755;43.608;1.236;2023-02-23T03:49:23;8.80;99.90
34768;DHT22;21755;43.608;1.236;2023-02-23T03:52:15;8.80;99.90
34768;DHT22;21755;43.608;1.236;2023-02-23T03:55:03;8.80;99.90
34768;DHT22;21755;43.608;1.236;2023-02-23T03:57:52;8.70;99.90
34768;DHT22;21755;43.608;1.236;2023-02-23T04:00:42;8.80;99.90
34768;DHT22;21755;43.608;1.236;2023-02-23T04:03:30;8.70;99.90
34768;DHT22;21755;43.608;1.236;2023-02-23T04:06:18;8.70;99.90
34768;DHT22;21755;43.608;1.236;2023-02-23T04:09:06;8.60;99.90
34768;DHT22;21755;43.608;1.236;2023-02-23T04:14:53;8.50;99.90
34768;DHT22;21755;43.608;1.236;2023-02-23T04:17:24;8.40;99.90
34768;DHT22;21755;43.608;1.236;2023-02-23T04:19:53;8.40;99.90
34768;DHT22;21755;43.608;1.236;2023-02-23T04:22:20;8.50;99.90
34768;DHT22;21755;43.608;1.236;2023-02-23T04:24:47;8.50;99.90
34768;DHT22;21755;43.608;1.236;2023-02-23T04:27:13;8.50;99.90
34768;DHT22;21755;43.608;1.236;2023-02-23T04:29:39;8.40;99.90
34768;DHT22;21755;43.608;1.236;2023-02-23T04:32:06;8.30;99.90
34768;DHT22;21755;43.608;1.236;2023-02-23T04:34:32;8.30;99.90
34768;DHT22;21755;43.608;1.236;2023-02-23T04:36:58;8.40;99.90
34768;DHT22;21755;43.608;1.236;2023-02-23T04:39:24;8.40;99.90
34768;DHT22;21755;43.608;1.236;2023-02-23T04:41:50;8.30;99.90
34768;DHT22;21755;43.608;1.236;2023-02-23T04:44:16;8.30;99.90
34768;DHT22;21755;43.608;1.236;2023-02-23T04:46:42;8.30;99.90
34768;DHT22;21755;43.608;1.236;2023-02-23T04:49:08;8.20;99.90
34768;DHT22;21755;43.608;1.236;2023-02-23T04:51:34;8.20;99.90
34768;DHT22;21755;43.608;1.236;2023-02-23T04:54:03;8.30;99.90
34768;DHT22;21755;43.608;1.236;2023-02-23T04:56:29;8.30;99.90
34768;DHT22;21755;43.608;1.236;2023-02-23T04:58:55;8.20;99.90
34768;DHT22;21755;43.608;1.236;2023-02-23T05:01:21;8.30;99.90
34768;DHT22;21755;43.608;1.236;2023-02-23T05:03:48;8.30;99.90
34768;DHT22;21755;43.608;1.236;2023-02-23T05:06:15;8.30;99.90
34768;DHT22;21755;43.608;1.236;2023-02-23T05:08:44;8.30;99.90
34768;DHT22;21755;43.608;1.236;2023-02-23T05:11:10;8.30;99.90
34768;DHT22;21755;43.608;1.236;2023-02-23T05:13:37;8.30;99.90
34768;DHT22;21755;43.608;1.236;2023-02-23T05:16:03;8.30;99.90
34768;DHT22;21755;43.608;1.236;2023-02-23T05:18:29;8.20;99.90
34768;DHT22;21755;43.608;1.236;2023-02-23T05:21:06;8.20;99.90
34768;DHT22;21755;43.608;1.236;2023-02-23T05:23:33;8.30;99.90
34768;DHT22;21755;43.608;1.236;2023-02-23T05:26:08;8.20;99.90
34768;DHT22;21755;43.608;1.236;2023-02-23T05:28:37;8.20;99.90
34768;DHT22;21755;43.608;1.236;2023-02-23T05:31:04;8.20;99.90
34768;DHT22;21755;43.608;1.236;2023-02-23T05:33:34;8.20;99.90
34768;DHT22;21755;43.608;1.236;2023-02-23T05:36:10;8.10;99.90
34768;DHT22;21755;43.608;1.236;2023-02-23T05:38:38;8.10;99.90
34768;DHT22;21755;43.608;1.236;2023-02-23T05:41:06;8.10;99.90
34768;DHT22;21755;43.608;1.236;2023-02-23T05:43:32;8.10;99.90
34768;DHT22;21755;43.608;1.236;2023-02-23T05:45:58;8.10;99.90
34768;DHT22;21755;43.608;1.236;2023-02-23T05:48:26;8.10;99.90
34768;DHT22;21755;43.608;1.236;2023-02-23T05:50:52;8.10;99.90
34768;DHT22;21755;43.608;1.236;2023-02-23T05:53:18;8.20;99.90
34768;DHT22;21755;43.608;1.236;2023-02-23T05:55:44;8.20;99.90
34768;DHT22;21755;43.608;1.236;2023-02-23T05:58:10;8.10;99.90
34768;DHT22;21755;43.608;1.236;2023-02-23T06:00:36;8.10;99.90
34768;DHT22;21755;43.608;1.236;2023-02-23T06:03:02;8.10;99.90
34768;DHT22;21755;43.608;1.236;2023-02-23T06:05:28;8.00;99.90
34768;DHT22;21755;43.608;1.236;2023-02-23T06:07:54;8.10;99.90
34768;DHT22;21755;43.608;1.236;2023-02-23T06:10:21;8.00;99.90
34768;DHT22;21755;43.608;1.236;2023-02-23T06:12:47;8.00;99.90
34768;DHT22;21755;43.608;1.236;2023-02-23T06:15:13;8.00;99.90
34768;DHT22;21755;43.608;1.236;2023-02-23T06:17:39;8.00;99.90
34768;DHT22;21755;43.608;1.236;2023-02-23T06:20:05;8.00;99.90
34768;DHT22;21755;43.608;1.236;2023-02-23T06:22:31;8.10;99.90
34768;DHT22;21755;43.608;1.236;2023-02-23T06:24:57;8.00;99.90
34768;DHT22;21755;43.608;1.236;2023-02-23T06:27:23;8.00;99.90
34768;DHT22;21755;43.608;1.236;2023-02-23T06:29:50;8.00;99.90
34768;DHT22;21755;43.608;1.236;2023-02-23T06:32:16;8.00;99.90
34768;DHT22;21755;43.608;1.236;2023-02-23T06:34:42;8.10;99.90
34768;DHT22;21755;43.608;1.236;2023-02-23T06:37:09;8.10;99.90
34768;DHT22;21755;43.608;1.236;2023-02-23T06:39:36;8.10;99.90
34768;DHT22;21755;43.608;1.236;2023-02-23T06:42:02;8.20;99.90
34768;DHT22;21755;43.608;1.236;2023-02-23T06:44:28;8.20;99.90
34768;DHT22;21755;43.608;1.236;2023-02-23T06:46:54;8.20;99.90
34768;DHT22;21755;43.608;1.236;2023-02-23T06:49:20;8.20;99.90
34768;DHT22;21755;43.608;1.236;2023-02-23T06:51:46;8.20;99.90
34768;DHT22;21755;43.608;1.236;2023-02-23T06:54:12;8.20;99.90
34768;DHT22;21755;43.608;1.236;2023-02-23T06:56:38;8.20;99.90
34768;DHT22;21755;43.608;1.236;2023-02-23T06:59:03;8.30;99.90
34768;DHT22;21755;43.608;1.236;2023-02-23T07:01:29;8.20;99.90
34768;DHT22;21755;43.608;1.236;2023-02-23T07:03:55;8.30;99.90
34768;DHT22;21755;43.608;1.236;2023-02-23T07:06:22;8.30;99.90
34768;DHT22;21755;43.608;1.236;2023-02-23T07:08:48;8.40;99.90
34768;DHT22;21755;43.608;1.236;2023-02-23T07:11:14;8.40;99.90
34768;DHT22;21755;43.608;1.236;2023-02-23T07:13:41;8.40;99.90
34768;DHT22;21755;43.608;1.236;2023-02-23T07:16:09;8.40;99.90
34768;DHT22;21755;43.608;1.236;2023-02-23T07:18:36;8.30;99.90
34768;DHT22;21755;43.608;1.236;2023-02-23T07:21:02;8.40;99.90
34768;DHT22;21755;43.608;1.236;2023-02-23T07:23:28;8.40;99.90
34768;DHT22;21755;43.608;1.236;2023-02-23T07:25:54;8.40;99.90
34768;DHT22;21755;43.608;1.236;2023-02-23T07:28:21;8.30;99.90
34768;DHT22;21755;43.608;1.236;2023-02-23T07:30:47;8.20;99.90
34768;DHT22;21755;43.608;1.236;2023-02-23T07:33:15;8.20;99.90
34768;DHT22;21755;43.608;1.236;2023-02-23T07:35:41;8.30;99.90
34768;DHT22;21755;43.608;1.236;2023-02-23T07:38:08;8.30;99.90
34768;DHT22;21755;43.608;1.236;2023-02-23T07:40:34;8.30;99.90
34768;DHT22;21755;43.608;1.236;2023-02-23T07:43:00;8.30;99.90
34768;DHT22;21755;43.608;1.236;2023-02-23T07:45:26;8.30;99.90
34768;DHT22;21755;43.608;1.236;2023-02-23T07:47:52;8.40;99.90
34768;DHT22;21755;43.608;1.236;2023-02-23T07:50:17;8.40;99.90
34768;DHT22;21755;43.608;1.236;2023-02-23T07:52:44;9.80;99.90
34768;DHT22;21755;43.608;1.236;2023-02-23T07:55:10;10.00;99.90
34768;DHT22;21755;43.608;1.236;2023-02-23T07:57:37;9.50;99.90
34768;DHT22;21755;43.608;1.236;2023-02-23T08:00:05;9.20;99.90
34768;DHT22;21755;43.608;1.236;2023-02-23T08:02:31;9.00;99.90
34768;DHT22;21755;43.608;1.236;2023-02-23T08:04:57;8.90;99.90
34768;DHT22;21755;43.608;1.236;2023-02-23T08:07:23;8.80;99.90
34768;DHT22;21755;43.608;1.236;2023-02-23T08:09:51;8.80;99.90
34768;DHT22;21755;43.608;1.236;2023-02-23T08:12:17;8.80;99.90
34768;DHT22;21755;43.608;1.236;2023-02-23T08:14:43;8.80;99.90
34768;DHT22;21755;43.608;1.236;2023-02-23T08:17:10;8.80;99.90
34768;DHT22;21755;43.608;1.236;2023-02-23T08:19:36;8.80;99.90
34768;DHT22;21755;43.608;1.236;2023-02-23T08:22:03;8.90;99.90
34768;DHT22;21755;43.608;1.236;2023-02-23T08:24:29;8.90;99.90
34768;DHT22;21755;43.608;1.236;2023-02-23T08:26:56;8.90;99.90
34768;DHT22;21755;43.608;1.236;2023-02-23T08:29:22;9.00;99.90
34768;DHT22;21755;43.608;1.236;2023-02-23T08:31:49;8.90;99.90
34768;DHT22;21755;43.608;1.236;2023-02-23T08:34:18;9.00;99.90
34768;DHT22;21755;43.608;1.236;2023-02-23T08:36:45;8.90;99.90
34768;DHT22;21755;43.608;1.236;2023-02-23T08:39:11;9.00;99.90
34768;DHT22;21755;43.608;1.236;2023-02-23T08:41:38;9.00;99.90
34768;DHT22;21755;43.608;1.236;2023-02-23T08:44:04;9.00;99.90
34768;DHT22;21755;43.608;1.236;2023-02-23T08:46:30;9.00;99.90
34768;DHT22;21755;43.608;1.236;2023-02-23T08:48:56;9.00;99.90
34768;DHT22;21755;43.608;1.236;2023-02-23T08:51:23;9.10;99.90
34768;DHT22;21755;43.608;1.236;2023-02-23T08:53:48;9.10;99.90
34768;DHT22;21755;43.608;1.236;2023-02-23T08:56:14;9.10;99.90
34768;DHT22;21755;43.608;1.236;2023-02-23T08:58:40;9.20;99.90
34768;DHT22;21755;43.608;1.236;2023-02-23T09:01:07;9.10;99.90
34768;DHT22;21755;43.608;1.236;2023-02-23T09:03:41;9.20;99.90
34768;DHT22;21755;43.608;1.236;2023-02-23T09:06:12;8.90;99.90
34768;DHT22;21755;43.608;1.236;2023-02-23T09:08:38;8.80;99.90
34768;DHT22;21755;43.608;1.236;2023-02-23T09:11:05;8.70;99.90
34768;DHT22;21755;43.608;1.236;2023-02-23T09:13:31;8.60;99.90
34768;DHT22;21755;43.608;1.236;2023-02-23T09:15:57;8.50;99.90
34768;DHT22;21755;43.608;1.236;2023-02-23T09:18:23;8.50;99.90
34768;DHT22;21755;43.608;1.236;2023-02-23T09:20:52;8.50;99.90
34768;DHT22;21755;43.608;1.236;2023-02-23T09:23:18;8.50;99.90
34768;DHT22;21755;43.608;1.236;2023-02-23T09:25:45;8.60;99.90
34768;DHT22;21755;43.608;1.236;2023-02-23T09:28:16;8.50;99.90
34768;DHT22;21755;43.608;1.236;2023-02-23T09:30:43;8.40;99.90
34768;DHT22;21755;43.608;1.236;2023-02-23T09:33:10;8.40;99.90
34768;DHT22;21755;43.608;1.236;2023-02-23T09:35:36;8.30;99.90
34768;DHT22;21755;43.608;1.236;2023-02-23T09:38:04;8.30;99.90
34768;DHT22;21755;43.608;1.236;2023-02-23T09:40:52;8.30;99.90
34768;DHT22;21755;43.608;1.236;2023-02-23T09:43:34;8.20;99.90
34768;DHT22;21755;43.608;1.236;2023-02-23T09:46:26;8.20;99.90
34768;DHT22;21755;43.608;1.236;2023-02-23T09:49:01;8.10;99.90
34768;DHT22;21755;43.608;1.236;2023-02-23T09:51:39;8.00;99.90
34768;DHT22;21755;43.608;1.236;2023-02-23T09:54:08;7.90;99.90
34768;DHT22;21755;43.608;1.236;2023-02-23T09:56:47;7.90;99.90
34768;DHT22;21755;43.608;1.236;2023-02-23T09:59:15;7.80;99.90
34768;DHT22;21755;43.608;1.236;2023-02-23T10:04:25;7.70;99.90
34768;DHT22;21755;43.608;1.236;2023-02-23T10:07:06;7.70;99.90
34768;DHT22;21755;43.608;1.236;2023-02-23T10:13:08;7.60;99.90
34768;DHT22;21755;43.608;1.236;2023-02-23T10:23:25;7.60;99.90
34768;DHT22;21755;43.608;1.236;2023-02-23T10:25:55;7.60;99.90
34768;DHT22;21755;43.608;1.236;2023-02-23T10:28:24;7.60;99.90
34768;DHT22;21755;43.608;1.236;2023-02-23T10:30:52;7.60;99.90
34768;DHT22;21755;43.608;1.236;2023-02-23T10:36:27;7.70;99.90
34768;DHT22;21755;43.608;1.236;2023-02-23T10:38:47;7.70;99.90
34768;DHT22;21755;43.608;1.236;2023-02-23T10:41:13;7.60;99.90
34768;DHT22;21755;43.608;1.236;2023-02-23T10:43:39;7.60;99.90
34768;DHT22;21755;43.608;1.236;2023-02-23T10:46:06;7.50;99.90
34768;DHT22;21755;43.608;1.236;2023-02-23T10:48:40;7.50;99.90
34768;DHT22;21755;43.608;1.236;2023-02-23T10:51:23;7.50;99.90
34768;DHT22;21755;43.608;1.236;2023-02-23T10:53:50;7.40;99.90
34768;DHT22;21755;43.608;1.236;2023-02-23T10:56:18;7.50;99.90
34768;DHT22;21755;43.608;1.236;2023-02-23T10:58:50;7.50;99.90
34768;DHT22;21755;43.608;1.236;2023-02-23T11:04:31;7.50;99.90
34768;DHT22;21755;43.608;1.236;2023-02-23T11:07:15;7.50;99.90
34768;DHT22;21755;43.608;1.236;2023-02-23T11:09:41;7.40;99.90
34768;DHT22;21755;43.608;1.236;2023-02-23T11:12:37;7.40;99.90
34768;DHT22;21755;43.608;1.236;2023-02-23T11:15:28;7.40;99.90
34768;DHT22;21755;43.608;1.236;2023-02-23T11:20:32;7.40;99.90
34768;DHT22;21755;43.608;1.236;2023-02-23T11:23:11;7.60;99.90
34768;DHT22;21755;43.608;1.236;2023-02-23T11:25:43;7.60;99.90
34768;DHT22;21755;43.608;1.236;2023-02-23T11:28:32;7.60;99.90
34768;DHT22;21755;43.608;1.236;2023-02-23T11:31:14;7.60;99.90
34768;DHT22;21755;43.608;1.236;2023-02-23T11:33:40;7.60;99.90
34768;DHT22;21755;43.608;1.236;2023-02-23T11:36:27;7.70;99.90
34768;DHT22;21755;43.608;1.236;2023-02-23T11:39:04;7.60;99.90
34768;DHT22;21755;43.608;1.236;2023-02-23T11:41:30;7.50;99.90
34768;DHT22;21755;43.608;1.236;2023-02-23T11:44:00;7.60;99.90
34768;DHT22;21755;43.608;1.236;2023-02-23T11:46:29;7.50;99.90
34768;DHT22;21755;43.608;1.236;2023-02-23T11:49:04;7.50;99.90
34768;DHT22;21755;43.608;1.236;2023-02-23T11:51:34;7.50;99.90
34768;DHT22;21755;43.608;1.236;2023-02-23T11:54:02;7.60;99.90
34768;DHT22;21755;43.608;1.236;2023-02-23T11:56:32;7.70;99.90
34768;DHT22;21755;43.608;1.236;2023-02-23T11:59:05;7.70;99.90
34768;DHT22;21755;43.608;1.236;2023-02-23T12:01:45;7.60;99.90
34768;DHT22;21755;43.608;1.236;2023-02-23T12:04:32;7.50;99.90
34768;DHT22;21755;43.608;1.236;2023-02-23T12:09:45;7.50;99.90
34768;DHT22;21755;43.608;1.236;2023-02-23T12:12:18;7.50;99.90
34768;DHT22;21755;43.608;1.236;2023-02-23T12:14:59;7.50;99.90
34768;DHT22;21755;43.608;1.236;2023-02-23T12:17:28;7.50;99.90
34768;DHT22;21755;43.608;1.236;2023-02-23T12:20:01;7.50;99.90
34768;DHT22;21755;43.608;1.236;2023-02-23T12:22:43;7.50;99.90
34768;DHT22;21755;43.608;1.236;2023-02-23T12:25:35;7.50;99.90
34768;DHT22;21755;43.608;1.236;2023-02-23T12:28:11;7.60;99.90
34768;DHT22;21755;43.608;1.236;2023-02-23T12:30:43;7.50;99.90
34768;DHT22;21755;43.608;1.236;2023-02-23T12:40:43;7.50;99.90
34768;DHT22;21755;43.608;1.236;2023-02-23T12:43:32;7.50;99.90
34768;DHT22;21755;43.608;1.236;2023-02-23T12:48:44;7.50;99.90
34768;DHT22;21755;43.608;1.236;2023-02-23T12:51:22;7.50;99.90
34768;DHT22;21755;43.608;1.236;2023-02-23T12:53:50;7.60;99.90
34768;DHT22;21755;43.608;1.236;2023-02-23T13:05:31;7.70;99.90
34768;DHT22;21755;43.608;1.236;2023-02-23T13:08:13;7.70;99.90
34768;DHT22;21755;43.608;1.236;2023-02-23T13:11:16;7.70;99.90
34768;DHT22;21755;43.608;1.236;2023-02-23T13:13:55;7.70;99.90
34768;DHT22;21755;43.608;1.236;2023-02-23T13:16:34;7.70;99.90
34768;DHT22;21755;43.608;1.236;2023-02-23T13:19:19;7.70;99.90
34768;DHT22;21755;43.608;1.236;2023-02-23T13:24:38;7.80;99.90
34768;DHT22;21755;43.608;1.236;2023-02-23T13:27:20;7.80;99.90
34768;DHT22;21755;43.608;1.236;2023-02-23T13:29:51;7.70;99.90
34768;DHT22;21755;43.608;1.236;2023-02-23T13:32:27;7.90;99.90
34768;DHT22;21755;43.608;1.236;2023-02-23T13:35:03;8.00;99.90
34768;DHT22;21755;43.608;1.236;2023-02-23T13:37:59;7.90;99.90
34768;DHT22;21755;43.608;1.236;2023-02-23T13:43:44;8.00;99.90
34768;DHT22;21755;43.608;1.236;2023-02-23T13:52:09;7.90;99.90
34768;DHT22;21755;43.608;1.236;2023-02-23T13:54:52;8.00;99.90
34768;DHT22;21755;43.608;1.236;2023-02-23T13:57:22;8.10;99.90
34768;DHT22;21755;43.608;1.236;2023-02-23T13:59:49;8.20;99.90
34768;DHT22;21755;43.608;1.236;2023-02-23T14:05:00;8.20;99.90
34768;DHT22;21755;43.608;1.236;2023-02-23T14:07:29;8.20;99.90
34768;DHT22;21755;43.608;1.236;2023-02-23T14:10:04;8.30;99.90
34768;DHT22;21755;43.608;1.236;2023-02-23T14:20:55;8.10;99.90
34768;DHT22;21755;43.608;1.236;2023-02-23T14:28:36;7.90;99.90
34768;DHT22;21755;43.608;1.236;2023-02-23T14:36:37;7.90;99.90
34768;DHT22;21755;43.608;1.236;2023-02-23T14:39:16;7.90;99.90
34768;DHT22;21755;43.608;1.236;2023-02-23T14:41:52;7.80;99.90
34768;DHT22;21755;43.608;1.236;2023-02-23T14:44:30;7.80;99.90
34768;DHT22;21755;43.608;1.236;2023-02-23T14:47:24;7.80;99.90
34768;DHT22;21755;43.608;1.236;2023-02-23T14:49:58;7.80;99.90
34768;DHT22;21755;43.608;1.236;2023-02-23T14:52:39;7.70;99.90
34768;DHT22;21755;43.608;1.236;2023-02-23T14:55:20;7.80;99.90
34768;DHT22;21755;43.608;1.236;2023-02-23T14:57:47;7.90;99.90
34768;DHT22;21755;43.608;1.236;2023-02-23T15:05:23;7.90;99.90
34768;DHT22;21755;43.608;1.236;2023-02-23T15:07:50;7.90;99.90
34768;DHT22;21755;43.608;1.236;2023-02-23T15:10:30;7.90;99.90
34768;DHT22;21755;43.608;1.236;2023-02-23T15:12:57;7.80;99.90
34768;DHT22;21755;43.608;1.236;2023-02-23T15:15:25;7.80;99.90
34768;DHT22;21755;43.608;1.236;2023-02-23T15:17:54;7.70;99.90
34768;DHT22;21755;43.608;1.236;2023-02-23T15:20:23;7.70;99.90
34768;DHT22;21755;43.608;1.236;2023-02-23T15:22:59;7.70;99.90
34768;DHT22;21755;43.608;1.236;2023-02-23T15:25:39;7.60;99.90
34768;DHT22;21755;43.608;1.236;2023-02-23T15:28:29;7.60;99.90
34768;DHT22;21755;43.608;1.236;2023-02-23T15:30:59;7.70;99.90
34768;DHT22;21755;43.608;1.236;2023-02-23T15:33:25;7.60;99.90
34768;DHT22;21755;43.608;1.236;2023-02-23T15:36:07;7.60;99.90
34768;DHT22;21755;43.608;1.236;2023-02-23T15:38:42;7.60;99.90
34768;DHT22;21755;43.608;1.236;2023-02-23T15:41:17;7.60;99.90
34768;DHT22;21755;43.608;1.236;2023-02-23T15:43:45;7.70;99.90
34768;DHT22;21755;43.608;1.236;2023-02-23T15:46:25;7.60;99.90
34768;DHT22;21755;43.608;1.236;2023-02-23T15:48:57;7.60;99.90
34768;DHT22;21755;43.608;1.236;2023-02-23T15:51:42;7.60;99.90
34768;DHT22;21755;43.608;1.236;2023-02-23T15:54:22;7.50;99.90
34768;DHT22;21755;43.608;1.236;2023-02-23T15:56:54;7.50;99.90
34768;DHT22;21755;43.608;1.236;2023-02-23T15:59:35;7.40;99.90
34768;DHT22;21755;43.608;1.236;2023-02-23T16:02:03;7.30;99.90
34768;DHT22;21755;43.608;1.236;2023-02-23T16:04:38;7.30;99.90
34768;DHT22;21755;43.608;1.236;2023-02-23T16:07:17;7.30;99.90
34768;DHT22;21755;43.608;1.236;2023-02-23T16:09:55;7.20;99.90
34768;DHT22;21755;43.608;1.236;2023-02-23T16:12:33;7.20;99.90
34768;DHT22;21755;43.608;1.236;2023-02-23T16:15:03;7.20;99.90
34768;DHT22;21755;43.608;1.236;2023-02-23T16:17:47;7.10;99.90
34768;DHT22;21755;43.608;1.236;2023-02-23T16:26:10;7.10;99.90
34768;DHT22;21755;43.608;1.236;2023-02-23T16:28:42;7.20;99.90
34768;DHT22;21755;43.608;1.236;2023-02-23T16:31:10;7.10;99.90
34768;DHT22;21755;43.608;1.236;2023-02-23T16:33:44;7.10;99.90
34768;DHT22;21755;43.608;1.236;2023-02-23T16:36:24;7.10;99.90
34768;DHT22;21755;43.608;1.236;2023-02-23T16:39:00;7.10;99.90
34768;DHT22;21755;43.608;1.236;2023-02-23T16:41:31;7.10;99.90
34768;DHT22;21755;43.608;1.236;2023-02-23T16:44:03;7.10;99.90
34768;DHT22;21755;43.608;1.236;2023-02-23T16:46:33;7.20;99.90
34768;DHT22;21755;43.608;1.236;2023-02-23T16:49:17;7.20;99.90
34768;DHT22;21755;43.608;1.236;2023-02-23T16:51:44;7.20;99.90
34768;DHT22;21755;43.608;1.236;2023-02-23T16:54:10;7.10;99.90
34768;DHT22;21755;43.608;1.236;2023-02-23T16:56:38;7.20;99.90
34768;DHT22;21755;43.608;1.236;2023-02-23T16:59:04;7.20;99.90
34768;DHT22;21755;43.608;1.236;2023-02-23T17:01:35;7.20;99.90
34768;DHT22;21755;43.608;1.236;2023-02-23T17:04:01;7.10;99.90
34768;DHT22;21755;43.608;1.236;2023-02-23T17:06:27;7.20;99.90
34768;DHT22;21755;43.608;1.236;2023-02-23T17:08:53;7.00;99.90
34768;DHT22;21755;43.608;1.236;2023-02-23T17:11:19;7.00;99.90
34768;DHT22;21755;43.608;1.236;2023-02-23T17:13:45;7.00;99.90
34768;DHT22;21755;43.608;1.236;2023-02-23T17:16:12;7.00;99.90
34768;DHT22;21755;43.608;1.236;2023-02-23T17:18:38;7.00;99.90
34768;DHT22;21755;43.608;1.236;2023-02-23T17:21:07;7.00;99.90
34768;DHT22;21755;43.608;1.236;2023-02-23T17:23:36;7.00;99.90
34768;DHT22;21755;43.608;1.236;2023-02-23T17:26:13;6.90;99.90
34768;DHT22;21755;43.608;1.236;2023-02-23T17:28:39;6.90;99.90
34768;DHT22;21755;43.608;1.236;2023-02-23T17:31:06;7.00;99.90
34768;DHT22;21755;43.608;1.236;2023-02-23T17:33:32;6.90;99.90
34768;DHT22;21755;43.608;1.236;2023-02-23T17:36:00;6.80;99.90
34768;DHT22;21755;43.608;1.236;2023-02-23T17:38:26;6.80;99.90
34768;DHT22;21755;43.608;1.236;2023-02-23T17:41:11;6.80;99.90
34768;DHT22;21755;43.608;1.236;2023-02-23T17:43:37;6.80;99.90
34768;DHT22;21755;43.608;1.236;2023-02-23T17:46:03;6.80;99.90
34768;DHT22;21755;43.608;1.236;2023-02-23T17:48:30;6.80;99.90
34768;DHT22;21755;43.608;1.236;2023-02-23T17:51:01;6.80;99.90
34768;DHT22;21755;43.608;1.236;2023-02-23T17:53:28;6.80;99.90
34768;DHT22;21755;43.608;1.236;2023-02-23T17:55:54;6.90;99.90
34768;DHT22;21755;43.608;1.236;2023-02-23T17:58:21;6.90;99.90
34768;DHT22;21755;43.608;1.236;2023-02-23T18:00:58;6.90;99.90
34768;DHT22;21755;43.608;1.236;2023-02-23T18:03:26;6.80;99.90
34768;DHT22;21755;43.608;1.236;2023-02-23T18:06:16;6.80;99.90
34768;DHT22;21755;43.608;1.236;2023-02-23T18:08:42;6.80;99.90
34768;DHT22;21755;43.608;1.236;2023-02-23T18:11:10;6.80;99.90
34768;DHT22;21755;43.608;1.236;2023-02-23T18:13:36;6.80;99.90
34768;DHT22;21755;43.608;1.236;2023-02-23T18:16:07;6.80;99.90
34768;DHT22;21755;43.608;1.236;2023-02-23T18:18:39;6.80;99.90